Time;durP1;ratioP1;P1;durP2;ratioP2;P2;SDS_P1;SDS_P2;PMS_P1;PMS_P2;Temp;Humidity;BMP_temperature;BMP_pressure;BME280_temperature;BME280_humidity;BME280_pressure;Samples;Min_cycle;Max_cycle;Signal;HPM_P1;HPM_P2
2021/05/19 00:01:01;;;;;;;;;;;;;;;20.76;57.28;99974.76;1780065;80;20288;-64
2021/05/19 00:03:28;;;;;;;;;;;;;;;20.76;57.24;99980.86;1773749;79;21246;-64
2021/05/19 00:05:54;;;;;;;;;;;;;;;20.75;57.24;99966.22;1781151;79;20506;-64
2021/05/19 00:08:20;;;;;;;;;;;;;;;20.75;57.23;99975.12;1779461;79;21724;-63
2021/05/19 00:10:45;;;;;;;;;;;;;;;20.74;57.20;99976.26;1778225;79;20520;-63
2021/05/19 00:13:11;;;;;;;;;;;;;;;20.74;57.21;99986.74;1779137;78;20515;-64
2021/05/19 00:15:38;;;;;;;;;;;;;;;20.73;57.16;99987.88;1778014;79;20996;-64
2021/05/19 00:18:04;;;;;;;;;;;;;;;20.73;57.15;99980.16;1781586;78;20638;-64
2021/05/19 00:20:30;;;;;;;;;;;;;;;20.72;57.14;99990.41;1779782;79;20270;-64
2021/05/19 00:22:56;;;;;;;;;;;;;;;20.72;57.13;99995.13;1784990;79;20281;-64
2021/05/19 00:25:23;;;;;;;;;;;;;;;20.71;57.11;99992.92;1779932;79;20220;-64
2021/05/19 00:27:48;;;;;;;;;;;;;;;20.71;57.10;99999.83;1783926;79;20976;-64
2021/05/19 00:30:19;;;;;;;;;;;;;;;20.72;57.08;99993.73;1781468;79;20210;-64
2021/05/19 00:32:43;;;;;;;;;;;;;;;20.70;57.06;99998.24;1782973;78;20275;-64
2021/05/19 00:35:10;;;;;;;;;;;;;;;20.70;57.03;99996.86;1783867;79;20271;-64
2021/05/19 00:37:36;;;;;;;;;;;;;;;20.70;57.04;100001.58;1776626;79;20246;-64
2021/05/19 00:40:03;;;;;;;;;;;;;;;20.70;57.00;99992.72;1779964;78;21057;-64
2021/05/19 00:42:29;;;;;;;;;;;;;;;20.68;57.00;99997.75;1778423;78;20267;-64
2021/05/19 00:44:55;;;;;;;;;;;;;;;20.68;56.99;99983.94;1782291;79;20699;-64
2021/05/19 00:47:40;;;;;;;;;;;;;;;20.68;56.99;99985.88;1783124;79;20599;-63
2021/05/19 00:50:12;;;;;;;;;;;;;;;20.67;56.94;99989.22;1778558;79;20288;-64
2021/05/19 00:52:38;;;;;;;;;;;;;;;20.65;56.94;100001.20;1786855;78;20914;-64
2021/05/19 00:55:06;;;;;;;;;;;;;;;20.67;56.92;100011.90;1784769;79;20226;-63
2021/05/19 00:57:32;;;;;;;;;;;;;;;20.66;56.88;100021.36;1782427;79;20487;-64
2021/05/19 00:59:59;;;;;;;;;;;;;;;20.64;56.88;100010.63;1779601;79;20238;-64
2021/05/19 01:02:24;;;;;;;;;;;;;;;20.65;56.85;100023.88;1786538;78;20244;-64
2021/05/19 01:04:51;;;;;;;;;;;;;;;20.65;56.84;100028.03;1778128;79;21599;-64
2021/05/19 01:07:26;;;;;;;;;;;;;;;20.63;56.82;100015.91;1779647;79;20258;-64
2021/05/19 01:09:52;;;;;;;;;;;;;;;20.63;56.82;100020.06;1772505;79;20297;-64
2021/05/19 01:12:20;;;;;;;;;;;;;;;20.62;56.79;100021.23;1787116;79;20290;-64
2021/05/19 01:14:46;;;;;;;;;;;;;;;20.62;56.81;100024.00;1789552;78;20254;-64
2021/05/19 01:17:12;;;;;;;;;;;;;;;20.62;56.78;100021.80;1788500;78;21252;-64
2021/05/19 01:19:42;;;;;;;;;;;;;;;20.62;56.77;100020.42;1786785;79;20253;-64
2021/05/19 01:22:11;;;;;;;;;;;;;;;20.61;56.72;100029.28;1789114;79;20544;-63
2021/05/19 01:24:38;;;;;;;;;;;;;;;20.59;56.71;100017.73;1782267;78;20294;-63
2021/05/19 01:27:05;;;;;;;;;;;;;;;20.59;56.68;100020.50;1790029;78;20279;-64
2021/05/19 01:29:32;;;;;;;;;;;;;;;20.60;56.69;100032.37;1793197;79;21176;-64
2021/05/19 01:31:58;;;;;;;;;;;;;;;20.59;56.66;100016.36;1786269;79;20389;-64
2021/05/19 01:34:23;;;;;;;;;;;;;;;20.58;56.63;100018.88;1786690;78;20227;-64
2021/05/19 01:36:49;;;;;;;;;;;;;;;20.58;56.64;100019.47;1788369;78;20174;-64
2021/05/19 01:39:15;;;;;;;;;;;;;;;20.58;56.61;100026.38;1762392;79;20202;-65
2021/05/19 01:41:41;;;;;;;;;;;;;;;20.57;56.62;100033.86;1786073;78;21116;-64
2021/05/19 01:44:12;;;;;;;;;;;;;;;20.58;56.59;100031.91;1785551;78;20198;-64
2021/05/19 01:46:38;;;;;;;;;;;;;;;20.57;56.58;100031.09;1765263;79;20222;-64
2021/05/19 01:49:03;;;;;;;;;;;;;;;20.55;56.55;100034.75;1787334;78;20166;-64
2021/05/19 01:51:29;;;;;;;;;;;;;;;20.56;56.58;100048.00;1740366;79;20163;-64
2021/05/19 01:53:55;;;;;;;;;;;;;;;20.55;56.56;100029.23;1790952;78;21106;-64
2021/05/19 01:56:21;;;;;;;;;;;;;;;20.55;56.53;100029.80;1782197;78;20242;-64
2021/05/19 01:58:47;;;;;;;;;;;;;;;20.55;56.53;100025.66;1792331;78;20206;-64
2021/05/19 02:01:13;;;;;;;;;;;;;;;20.55;56.50;100034.75;1790655;78;20230;-64
2021/05/19 02:03:39;;;;;;;;;;;;;;;20.55;56.48;100038.09;1789304;78;20421;-64
2021/05/19 02:06:05;;;;;;;;;;;;;;;20.53;56.48;100026.01;1786177;78;21217;-63
2021/05/19 02:08:31;;;;;;;;;;;;;;;20.53;56.49;100027.39;1787955;78;20842;-64
2021/05/19 02:10:57;;;;;;;;;;;;;;;20.53;56.46;100020.48;1792508;78;20327;-64
2021/05/19 02:13:23;;;;;;;;;;;;;;;20.52;56.45;100032.67;1789732;78;20198;-64
2021/05/19 02:15:49;;;;;;;;;;;;;;;20.52;56.43;100032.67;1790779;79;20548;-64
2021/05/19 02:18:15;;;;;;;;;;;;;;;20.51;56.43;100024.95;1789526;78;21020;-64
2021/05/19 02:20:41;;;;;;;;;;;;;;;20.51;56.43;100029.66;1792215;79;20488;-64
2021/05/19 02:23:07;;;;;;;;;;;;;;;20.51;56.41;100022.75;1789089;78;20260;-64
2021/05/19 02:25:33;;;;;;;;;;;;;;;20.50;56.39;100021.13;1793336;78;20623;-64
2021/05/19 02:27:59;;;;;;;;;;;;;;;20.50;56.38;100025.27;1790366;78;20465;-64
2021/05/19 02:30:28;;;;;;;;;;;;;;;20.49;56.39;100031.97;1791560;78;21023;-64
2021/05/19 02:32:54;;;;;;;;;;;;;;;20.48;56.36;100029.77;1795841;78;20257;-64
2021/05/19 02:35:20;;;;;;;;;;;;;;;20.47;56.34;100031.48;1788472;78;20270;-64
2021/05/19 02:37:46;;;;;;;;;;;;;;;20.47;56.33;100030.91;1796949;78;20682;-64
2021/05/19 02:40:13;;;;;;;;;;;;;;;20.47;56.34;100032.30;1793573;78;20261;-64
2021/05/19 02:42:39;;;;;;;;;;;;;;;20.47;56.33;100039.77;1797982;78;21051;-65
2021/05/19 02:45:06;;;;;;;;;;;;;;;20.48;56.31;100051.06;1758021;79;20231;-63
2021/05/19 02:47:32;;;;;;;;;;;;;;;20.46;56.29;100045.05;1793467;78;20543;-64
2021/05/19 02:49:58;;;;;;;;;;;;;;;20.47;56.27;100045.30;1791429;78;20226;-64
2021/05/19 02:52:24;;;;;;;;;;;;;;;20.46;56.26;100046.43;1794553;78;20190;-64
2021/05/19 02:54:50;;;;;;;;;;;;;;;20.45;56.26;100049.77;1794426;78;21093;-63
2021/05/19 02:57:16;;;;;;;;;;;;;;;20.45;56.25;100055.89;1785794;78;20767;-64
2021/05/19 02:59:42;;;;;;;;;;;;;;;20.45;56.23;100063.58;1791378;78;20192;-64
2021/05/19 03:02:08;;;;;;;;;;;;;;;20.44;56.21;100061.98;1790130;78;20272;-64
2021/05/19 03:04:34;;;;;;;;;;;;;;;20.44;56.21;100059.22;1792338;78;20194;-64
2021/05/19 03:07:00;;;;;;;;;;;;;;;20.45;56.20;100069.70;1785501;78;21002;-64
2021/05/19 03:09:26;;;;;;;;;;;;;;;20.44;56.20;100081.89;1769961;80;20226;-64
2021/05/19 03:11:52;;;;;;;;;;;;;;;20.42;56.16;100068.40;1782663;80;20250;-64
2021/05/19 03:14:18;;;;;;;;;;;;;;;20.43;56.18;100071.97;1775491;80;20166;-64
2021/05/19 03:16:44;;;;;;;;;;;;;;;20.42;56.16;100086.36;1773447;80;20253;-64
2021/05/19 03:19:09;;;;;;;;;;;;;;;20.42;56.15;100079.45;1780840;80;21190;-64
2021/05/19 03:21:35;;;;;;;;;;;;;;;20.42;56.14;100082.78;1777327;80;20840;-64
2021/05/19 03:24:02;;;;;;;;;;;;;;;20.41;56.13;100086.11;1771716;80;20190;-64
2021/05/19 03:26:28;;;;;;;;;;;;;;;20.40;56.11;100093.38;1780910;80;20593;-64
2021/05/19 03:28:54;;;;;;;;;;;;;;;20.40;56.13;100096.95;1776093;79;20779;-64
2021/05/19 03:31:19;;;;;;;;;;;;;;;20.40;56.09;100094.75;1784794;80;21886;-64
2021/05/19 03:33:45;;;;;;;;;;;;;;;20.40;56.09;100102.48;1775484;80;20271;-64
2021/05/19 03:36:11;;;;;;;;;;;;;;;20.39;56.08;100098.66;1777638;80;20203;-64
2021/05/19 03:38:37;;;;;;;;;;;;;;;20.39;56.05;100095.89;1779706;79;20262;-64
2021/05/19 03:41:04;;;;;;;;;;;;;;;20.39;56.05;100092.56;1775097;80;20592;-64
2021/05/19 03:43:30;;;;;;;;;;;;;;;20.38;56.04;100101.98;1770626;80;21868;-64
2021/05/19 03:45:56;;;;;;;;;;;;;;;20.37;56.03;100105.07;1780047;80;20181;-64
2021/05/19 03:48:22;;;;;;;;;;;;;;;20.37;56.03;100107.83;1781415;80;20198;-64
2021/05/19 03:50:48;;;;;;;;;;;;;;;20.37;56.03;100114.73;1773941;79;20205;-64
2021/05/19 03:53:14;;;;;;;;;;;;;;;20.36;56.03;100106.23;1779066;80;20802;-64
2021/05/19 03:55:40;;;;;;;;;;;;;;;20.36;56.00;100109.00;1777975;80;21973;-64
2021/05/19 03:58:07;;;;;;;;;;;;;;;20.35;56.01;100111.52;1773966;79;20225;-64
2021/05/19 04:00:36;;;;;;;;;;;;;;;20.37;56.00;100123.03;1772681;79;20210;-64
2021/05/19 04:03:05;;;;;;;;;;;;;;;20.35;55.99;100105.98;1774391;80;20520;-64
2021/05/19 04:05:35;;;;;;;;;;;;;;;20.35;56.00;100107.37;1780530;80;20528;-64
2021/05/19 04:07:59;;;;;;;;;;;;;;;20.35;55.97;100104.61;1789785;78;21465;-64
2021/05/19 04:10:25;;;;;;;;;;;;;;;20.34;55.94;100109.32;1799934;78;20170;-64
2021/05/19 04:12:52;;;;;;;;;;;;;;;20.35;55.97;100104.61;1802003;78;20266;-64
2021/05/19 04:15:19;;;;;;;;;;;;;;;20.34;55.95;100112.65;1800743;78;20261;-63
2021/05/19 04:17:45;;;;;;;;;;;;;;;20.34;55.96;100116.23;1798615;78;20440;-63
2021/05/19 04:20:12;;;;;;;;;;;;;;;20.35;56.01;100126.70;1797847;78;21251;-62
2021/05/19 04:22:38;;;;;;;;;;;;;;;20.35;56.03;100123.38;1800405;79;20280;-63
2021/05/19 04:25:05;;;;;;;;;;;;;;;20.34;56.06;100125.89;1799460;78;20272;-63
2021/05/19 04:27:31;;;;;;;;;;;;;;;20.34;56.09;100132.80;1801091;78;20581;-63
2021/05/19 04:29:57;;;;;;;;;;;;;;;20.35;56.13;100125.33;1796143;78;20709;-63
2021/05/19 04:32:23;;;;;;;;;;;;;;;20.35;56.17;100128.09;1800848;78;21107;-63
2021/05/19 04:34:49;;;;;;;;;;;;;;;20.35;56.21;100126.14;1794864;78;20263;-63
2021/05/19 04:37:15;;;;;;;;;;;;;;;20.35;56.24;100139.14;1796442;78;20251;-63
2021/05/19 04:39:41;;;;;;;;;;;;;;;20.34;56.26;100133.37;1795300;78;20186;-63
2021/05/19 04:42:07;;;;;;;;;;;;;;;20.35;56.29;100139.14;1800120;78;20973;-63
2021/05/19 04:44:33;;;;;;;;;;;;;;;20.35;56.30;100136.38;1793354;78;21412;-63
2021/05/19 04:46:59;;;;;;;;;;;;;;;20.34;56.34;100142.47;1796594;78;20162;-63
2021/05/19 04:49:25;;;;;;;;;;;;;;;20.35;56.35;100144.66;1796232;78;20198;-63
2021/05/19 04:51:52;;;;;;;;;;;;;;;20.33;56.37;100138.64;1798200;78;20230;-63
2021/05/19 04:54:17;;;;;;;;;;;;;;;20.33;56.38;100138.64;1796853;78;20201;-63
2021/05/19 04:56:43;;;;;;;;;;;;;;;20.33;56.42;100144.17;1797377;78;21074;-63
2021/05/19 04:59:09;;;;;;;;;;;;;;;20.32;56.43;100146.72;1799077;78;20154;-63
2021/05/19 05:01:35;;;;;;;;;;;;;;;20.31;56.44;100137.62;1813098;77;20707;-63
2021/05/19 05:04:01;;;;;;;;;;;;;;;20.31;56.45;100128.52;1779957;78;20756;-62
2021/05/19 05:06:27;;;;;;;;;;;;;;;20.30;56.50;100135.17;1787998;79;20234;-62
2021/05/19 05:08:53;;;;;;;;;;;;;;;20.31;56.53;100138.19;1783964;78;20222;-61
2021/05/19 05:11:19;;;;;;;;;;;;;;;20.31;56.52;100140.95;1767536;80;20282;-62
2021/05/19 05:13:45;;;;;;;;;;;;;;;20.30;56.54;100135.98;1768797;80;20284;-62
2021/05/19 05:16:12;;;;;;;;;;;;;;;20.30;56.55;100142.08;1773954;80;20218;-62
2021/05/19 05:18:39;;;;;;;;;;;;;;;20.30;56.58;100144.28;1772957;80;20227;-62
2021/05/19 05:21:05;;;;;;;;;;;;;;;20.29;56.60;100143.19;1769223;80;21060;-60
2021/05/19 05:23:31;;;;;;;;;;;;;;;20.31;56.64;100145.09;1774804;79;20308;-62
2021/05/19 05:25:59;;;;;;;;;;;;;;;20.31;56.61;100141.77;1772682;79;20372;-62
2021/05/19 05:28:25;;;;;;;;;;;;;;;20.33;56.64;100152.46;1774472;80;20301;-61
2021/05/19 05:30:52;;;;;;;;;;;;;;;20.34;56.65;100150.76;1773202;80;20362;-62
2021/05/19 05:33:18;;;;;;;;;;;;;;;20.34;56.65;100143.04;1779776;80;21009;-62
2021/05/19 05:35:43;;;;;;;;;;;;;;;20.33;56.63;100140.03;1779671;80;20288;-62
2021/05/19 05:38:09;;;;;;;;;;;;;;;20.32;56.64;100139.25;1778464;80;20288;-62
2021/05/19 05:40:35;;;;;;;;;;;;;;;20.32;56.65;100137.05;1777243;80;20770;-62
2021/05/19 05:43:02;;;;;;;;;;;;;;;20.32;56.66;100146.72;1775335;80;20321;-62
2021/05/19 05:45:27;;;;;;;;;;;;;;;20.31;56.67;100154.76;1780593;80;20958;-62
2021/05/19 05:47:54;;;;;;;;;;;;;;;20.30;56.67;100150.37;1780155;80;20558;-62
2021/05/19 05:50:20;;;;;;;;;;;;;;;20.28;56.69;100149.31;1780408;79;20293;-62
2021/05/19 05:52:46;;;;;;;;;;;;;;;20.29;56.70;100154.23;1781943;80;20376;-62
2021/05/19 05:55:13;;;;;;;;;;;;;;;20.28;56.70;100150.69;1781899;80;20224;-62
2021/05/19 05:57:39;;;;;;;;;;;;;;;20.29;56.72;100151.47;1781043;80;20958;-62
2021/05/19 06:00:06;;;;;;;;;;;;;;;20.28;56.74;100160.36;1788566;79;20533;-62
2021/05/19 06:02:32;;;;;;;;;;;;;;;20.29;56.75;100162.52;1776553;79;20263;-62
2021/05/19 06:04:58;;;;;;;;;;;;;;;20.28;56.74;100163.69;1779176;80;20278;-62
2021/05/19 06:07:24;;;;;;;;;;;;;;;20.28;56.74;100166.45;1776521;78;20256;-62
2021/05/19 06:09:53;;;;;;;;;;;;;;;20.27;56.75;100173.92;1791137;77;21070;-62
2021/05/19 06:12:19;;;;;;;;;;;;;;;20.27;56.75;100172.54;1794002;77;20254;-62
2021/05/19 06:14:45;;;;;;;;;;;;;;;20.27;56.74;100167.58;1793577;77;20295;-62
2021/05/19 06:17:13;;;;;;;;;;;;;;;20.26;56.76;100169.53;1789390;77;20771;-62
2021/05/19 06:19:40;;;;;;;;;;;;;;;20.28;56.75;100169.21;1794207;77;20355;-62
2021/05/19 06:22:07;;;;;;;;;;;;;;;20.26;56.75;100172.86;1794988;77;21339;-62
2021/05/19 06:24:33;;;;;;;;;;;;;;;20.27;56.74;100171.72;1794990;77;21620;-63
2021/05/19 06:26:58;;;;;;;;;;;;;;;20.26;56.73;100165.95;1797884;77;20268;-63
2021/05/19 06:29:24;;;;;;;;;;;;;;;20.27;56.73;100164.81;1794273;77;20279;-62
2021/05/19 06:31:50;;;;;;;;;;;;;;;20.26;56.73;100164.57;1794667;79;20194;-62
2021/05/19 06:34:16;;;;;;;;;;;;;;;20.25;56.75;100153.27;1793324;77;21162;-62
2021/05/19 06:36:46;;;;;;;;;;;;;;;20.24;56.75;100153.84;1791026;77;20763;-63
2021/05/19 06:39:10;;;;;;;;;;;;;;;20.25;56.72;100156.85;1794463;77;20294;-62
2021/05/19 06:41:36;;;;;;;;;;;;;;;20.25;56.72;100161.56;1791037;77;20783;-63
2021/05/19 06:44:02;;;;;;;;;;;;;;;20.24;56.75;100163.52;1790782;77;20253;-62
2021/05/19 06:46:28;;;;;;;;;;;;;;;20.24;56.74;100157.20;1787371;77;20904;-62
2021/05/19 06:48:54;;;;;;;;;;;;;;;20.23;56.72;100166.05;1792375;77;20696;-62
2021/05/19 06:51:22;;;;;;;;;;;;;;;20.24;56.71;100159.97;1797974;77;20877;-63
2021/05/19 06:53:48;;;;;;;;;;;;;;;20.24;56.72;100153.06;1794051;77;20869;-63
2021/05/19 06:56:14;;;;;;;;;;;;;;;20.23;56.71;100158.34;1790064;77;20247;-63
2021/05/19 06:58:40;;;;;;;;;;;;;;;20.23;56.68;100158.34;1788034;77;23222;-63
2021/05/19 07:01:06;;;;;;;;;;;;;;;20.23;56.70;100148.67;1790391;77;20212;-63
2021/05/19 07:03:33;;;;;;;;;;;;;;;20.24;56.70;100157.20;1790704;77;20282;-62
2021/05/19 07:05:59;;;;;;;;;;;;;;;20.23;56.68;100150.86;1797574;77;20523;-63
2021/05/19 07:08:24;;;;;;;;;;;;;;;20.23;56.68;100155.01;1794978;77;20780;-62
2021/05/19 07:10:50;;;;;;;;;;;;;;;20.23;56.66;100174.34;1812312;77;22055;-63
2021/05/19 07:13:18;;;;;;;;;;;;;;;20.23;56.68;100154.20;1807772;77;20269;-62
2021/05/19 07:15:45;;;;;;;;;;;;;;;20.23;56.67;100161.09;1811342;77;20310;-62
2021/05/19 07:18:14;;;;;;;;;;;;;;;20.24;56.65;100167.66;1805716;77;20237;-62
2021/05/19 07:20:39;;;;;;;;;;;;;;;20.24;56.66;100153.84;1806625;78;20409;-63
2021/05/19 07:23:05;;;;;;;;;;;;;;;20.23;56.65;100163.30;1806925;77;23274;-63
2021/05/19 07:25:31;;;;;;;;;;;;;;;20.24;56.64;100164.11;1809718;77;20271;-63
2021/05/19 07:27:57;;;;;;;;;;;;;;;20.25;56.63;100175.38;1811845;77;20797;-63
2021/05/19 07:30:23;;;;;;;;;;;;;;;20.25;56.62;100165.14;1810862;77;20745;-62
2021/05/19 07:32:49;;;;;;;;;;;;;;;20.27;56.62;100156.53;1811191;77;20323;-62
2021/05/19 07:35:15;;;;;;;;;;;;;;;20.27;56.60;100169.78;1812265;77;20856;-62
2021/05/19 07:37:41;;;;;;;;;;;;;;;20.28;56.58;100160.92;1809778;77;20458;-62
2021/05/19 07:40:08;;;;;;;;;;;;;;;20.29;56.55;100161.14;1804821;77;20277;-62
2021/05/19 07:42:34;;;;;;;;;;;;;;;20.29;56.54;100161.14;1810149;77;20176;-63
2021/05/19 07:45:01;;;;;;;;;;;;;;;20.30;56.53;100163.61;1802689;77;20221;-62
2021/05/19 07:47:26;;;;;;;;;;;;;;;20.31;56.53;100171.33;1812036;77;21118;-62
2021/05/19 07:49:52;;;;;;;;;;;;;;;20.32;56.50;100176.54;1809978;77;20192;-62
2021/05/19 07:52:19;;;;;;;;;;;;;;;20.32;56.50;100168.25;1812582;77;20678;-63
2021/05/19 07:54:47;;;;;;;;;;;;;;;20.34;56.49;100166.52;1807495;77;20534;-63
2021/05/19 07:57:38;;;;;;;;;;;;;;;20.34;56.47;100163.76;1813329;77;20501;-62
2021/05/19 08:00:12;;;;;;;;;;;;;;;20.36;56.46;100162.87;1802809;77;21087;-62
2021/05/19 08:02:18;;;;;;;;;;;;;;;20.36;56.43;100160.92;1802937;77;20284;-62
2021/05/19 08:04:44;;;;;;;;;;;;;;;20.38;56.40;100162.77;1806825;77;20537;-62
2021/05/19 08:07:10;;;;;;;;;;;;;;;20.38;56.38;100174.38;1809419;77;20774;-62
2021/05/19 08:09:36;;;;;;;;;;;;;;;20.38;56.38;100162.77;1807346;77;20636;-63
2021/05/19 08:12:02;;;;;;;;;;;;;;;20.39;56.36;100169.92;1810010;77;20981;-62
2021/05/19 08:14:30;;;;;;;;;;;;;;;20.41;56.36;100164.08;1809780;77;20224;-62
2021/05/19 08:16:57;;;;;;;;;;;;;;;20.41;56.34;100156.57;1807352;77;20258;-62
2021/05/19 08:19:23;;;;;;;;;;;;;;;20.44;56.33;100157.88;1812434;77;20515;-62
2021/05/19 08:21:49;;;;;;;;;;;;;;;20.44;56.30;100157.30;1805761;77;20603;-62
2021/05/19 08:24:15;;;;;;;;;;;;;;;20.46;56.28;100148.67;1805782;77;21150;-62
2021/05/19 08:26:41;;;;;;;;;;;;;;;20.47;56.26;100157.20;1808386;77;20344;-63
2021/05/19 08:29:06;;;;;;;;;;;;;;;20.48;56.25;100171.27;1809713;77;20712;-63
2021/05/19 08:31:32;;;;;;;;;;;;;;;20.48;56.22;100164.36;1810729;77;20724;-62
2021/05/19 08:33:58;;;;;;;;;;;;;;;20.47;56.20;100161.34;1812989;77;20279;-62
2021/05/19 08:36:25;;;;;;;;;;;;;;;20.47;56.21;100164.11;1809512;77;21153;-62
2021/05/19 08:38:53;;;;;;;;;;;;;;;20.47;56.19;100154.44;1810903;77;20907;-62
2021/05/19 08:41:19;;;;;;;;;;;;;;;20.46;56.18;100163.86;1805681;77;20272;-62
2021/05/19 08:43:45;;;;;;;;;;;;;;;20.45;56.18;100165.03;1809798;77;20342;-63
2021/05/19 08:46:11;;;;;;;;;;;;;;;20.46;56.16;100173.53;1808587;77;20301;-63
2021/05/19 08:48:38;;;;;;;;;;;;;;;20.45;56.14;100171.34;1812791;77;20986;-62
2021/05/19 08:51:04;;;;;;;;;;;;;;;20.45;56.13;100174.70;1811912;77;20228;-62
2021/05/19 08:53:32;;;;;;;;;;;;;;;20.44;56.12;100174.45;1808700;77;32453;-63
2021/05/19 08:55:59;;;;;;;;;;;;;;;20.45;56.11;100177.47;1789409;78;20631;-63
2021/05/19 08:58:25;;;;;;;;;;;;;;;20.44;56.09;100178.59;1786369;79;20283;-62
2021/05/19 09:00:51;;;;;;;;;;;;;;;20.44;56.08;100182.17;1768659;80;21033;-62
2021/05/19 09:03:17;;;;;;;;;;;;;;;20.44;56.06;100177.22;1785624;79;21619;-62
2021/05/19 09:05:48;;;;;;;;;;;;;;;20.42;56.05;100183.06;1782447;79;20522;-63
2021/05/19 09:08:19;;;;;;;;;;;;;;;20.43;56.03;100184.69;1781815;80;20238;-63
2021/05/19 09:10:58;;;;;;;;;;;;;;;20.43;56.01;100175.59;1773779;80;20618;-62
2021/05/19 09:13:35;;;;;;;;;;;;;;;20.43;56.00;100182.50;1768203;80;21216;-62
2021/05/19 09:16:03;;;;;;;;;;;;;;;20.43;55.95;100172.83;1766552;80;20300;-63
2021/05/19 09:18:52;;;;;;;;;;;;;;;20.43;55.93;100179.16;1770020;80;20513;-63
2021/05/19 09:21:44;;;;;;;;;;;;;;;20.42;55.93;100172.01;1759756;80;20240;-62
2021/05/19 09:24:12;;;;;;;;;;;;;;;20.42;55.89;100172.58;1767495;80;20288;-63
2021/05/19 09:26:53;;;;;;;;;;;;;;;20.41;55.88;100175.13;1766115;80;21806;-63
2021/05/19 09:29:23;;;;;;;;;;;;;;;20.41;55.87;100164.08;1761799;80;20286;-63
2021/05/19 09:31:53;;;;;;;;;;;;;;;20.41;55.85;100159.93;1751152;80;20608;-62
2021/05/19 09:34:28;;;;;;;;;;;;;;;20.39;55.83;100161.63;1777882;80;21970;-63
2021/05/19 09:36:58;;;;;;;;;;;;;;;20.40;55.83;100153.59;1767060;80;20589;-62
2021/05/19 09:39:24;;;;;;;;;;;;;;;20.40;55.81;100159.12;1755400;80;21848;-62
2021/05/19 09:41:55;;;;;;;;;;;;;;;20.41;55.79;100164.08;1731187;80;20244;-63
2021/05/19 09:44:24;;;;;;;;;;;;;;;20.42;55.78;100161.53;1760472;80;20308;-62
2021/05/19 09:46:50;;;;;;;;;;;;;;;20.42;55.78;100156.00;1774352;80;20188;-63
2021/05/19 09:49:23;;;;;;;;;;;;;;;20.41;55.78;100142.75;1770978;80;20261;-62
2021/05/19 09:51:53;;;;;;;;;;;;;;;20.43;55.78;100154.30;1761685;80;20307;-62
2021/05/19 09:54:34;;;;;;;;;;;;;;;20.44;55.75;100139.91;1781509;80;20285;-62
2021/05/19 09:57:03;;;;;;;;;;;;;;;20.44;55.73;100147.64;1780484;80;20178;-62
2021/05/19 09:59:29;;;;;;;;;;;;;;;20.46;55.74;100147.28;1779453;80;20277;-62
2021/05/19 10:01:57;;;;;;;;;;;;;;;20.47;55.71;100142.00;1774673;80;20311;-62
2021/05/19 10:04:28;;;;;;;;;;;;;;;20.48;55.72;100138.11;1770173;80;21898;-62
2021/05/19 10:06:51;;;;;;;;;;;;;;;20.51;55.71;100138.81;1760484;80;20503;-63
2021/05/19 10:09:17;;;;;;;;;;;;;;;20.53;55.71;100133.78;1779544;79;20195;-62
2021/05/19 10:11:44;;;;;;;;;;;;;;;20.56;55.66;100140.02;1783742;79;20306;-63
2021/05/19 10:14:14;;;;;;;;;;;;;;;20.59;55.62;100135.77;1782603;80;20567;-62
2021/05/19 10:16:45;;;;;;;;;;;;;;;20.61;55.63;100141.78;1782256;79;21618;-63
2021/05/19 10:19:13;;;;;;;;;;;;;;;20.63;55.58;100140.29;1774557;80;20186;-63
2021/05/19 10:21:39;;;;;;;;;;;;;;;20.68;55.55;100148.97;1782893;79;20212;-62
2021/05/19 10:24:07;;;;;;;;;;;;;;;20.70;55.51;100133.69;1785359;78;20273;-62
2021/05/19 10:27:03;;;;;;;;;;;;;;;20.73;55.46;100126.09;1783218;79;20643;-62
2021/05/19 10:29:52;;;;;;;;;;;;;;;20.75;55.41;100123.80;1780833;79;20238;-63
2021/05/19 10:32:26;;;;;;;;;;;;;;;20.78;55.40;100137.53;1817006;77;20314;-62
2021/05/19 10:34:53;;;;;;;;;;;;;;;20.81;55.35;100132.71;1813515;77;20316;-62
2021/05/19 10:37:34;;;;;;;;;;;;;;;20.83;55.32;100138.73;1810743;77;20232;-62
2021/05/19 10:40:19;;;;;;;;;;;;;;;20.84;55.29;100128.70;1788557;78;20245;-62
2021/05/19 10:42:59;;;;;;;;;;;;;;;20.88;55.25;100125.50;1780787;78;21204;-62
2021/05/19 10:45:25;;;;;;;;;;;;;;;20.92;55.21;100125.63;1776150;78;20190;-62
2021/05/19 10:47:51;;;;;;;;;;;;;;;20.94;55.16;100124.73;1781171;78;20301;-61
2021/05/19 10:50:38;;;;;;;;;;;;;;;20.95;55.10;100120.83;1795656;78;20751;-62
2021/05/19 10:58:43;;;;;;;;;;;;;;;21.01;54.98;100113.94;1802358;78;20283;-62
2021/05/19 11:01:12;;;;;;;;;;;;;;;21.01;54.93;100108.41;1807425;77;20284;-62
2021/05/19 11:03:39;;;;;;;;;;;;;;;21.04;54.88;100108.33;1771948;80;20233;-62
2021/05/19 11:06:07;;;;;;;;;;;;;;;21.04;54.85;100115.23;1794403;78;20529;-62
2021/05/19 11:08:35;;;;;;;;;;;;;;;21.07;54.83;100115.37;1787482;78;21223;-61
2021/05/19 11:11:22;;;;;;;;;;;;;;;21.11;54.77;100121.03;1786080;78;20262;-61
2021/05/19 11:14:02;;;;;;;;;;;;;;;21.12;54.71;100109.67;1813653;77;20263;-61
2021/05/19 11:16:56;;;;;;;;;;;;;;;21.14;54.63;100100.45;1783369;79;20499;-61
2021/05/19 11:19:35;;;;;;;;;;;;;;;21.18;54.56;100092.27;1783210;79;20203;-61
2021/05/19 11:22:04;;;;;;;;;;;;;;;21.20;54.44;100094.14;1784616;79;20988;-61
2021/05/19 11:24:30;;;;;;;;;;;;;;;21.21;54.40;100101.30;1778155;79;20332;-61
2021/05/19 11:26:56;;;;;;;;;;;;;;;21.22;54.37;100096.80;1769530;80;20207;-61
2021/05/19 11:29:22;;;;;;;;;;;;;;;21.25;54.34;100092.56;1772272;78;20744;-61
2021/05/19 11:31:50;;;;;;;;;;;;;;;21.27;54.31;100093.83;1781683;80;20251;-61
2021/05/19 11:34:21;;;;;;;;;;;;;;;21.31;54.27;100090.62;1772074;80;21102;-62
2021/05/19 11:36:57;;;;;;;;;;;;;;;21.34;54.25;100086.38;1775367;80;20539;-61
2021/05/19 11:39:24;;;;;;;;;;;;;;;21.37;54.22;100088.45;1772497;80;20249;-61
2021/05/19 11:41:52;;;;;;;;;;;;;;;21.40;54.16;100080.28;1784233;78;21859;-61
2021/05/19 11:44:31;;;;;;;;;;;;;;;21.45;54.16;100092.28;1794052;78;20218;-61
2021/05/19 11:46:57;;;;;;;;;;;;;;;21.47;54.11;100084.47;1792820;78;21129;-62
2021/05/19 11:49:23;;;;;;;;;;;;;;;21.50;54.08;100083.77;1792410;78;20465;-61
2021/05/19 11:51:49;;;;;;;;;;;;;;;21.53;54.07;100080.31;1792068;78;20222;-62
2021/05/19 11:54:15;;;;;;;;;;;;;;;21.56;54.04;100076.29;1793311;78;21920;-61
2021/05/19 11:56:46;;;;;;;;;;;;;;;21.59;54.01;100077.02;1792373;78;20234;-62
2021/05/19 11:59:28;;;;;;;;;;;;;;;21.63;53.95;100068.83;1791236;78;21193;-62
2021/05/19 12:02:04;;;;;;;;;;;;;;;21.64;53.92;100081.52;1790435;78;20247;-61
2021/05/19 12:04:32;;;;;;;;;;;;;;;21.65;53.84;100076.20;1793429;78;20206;-62
2021/05/19 12:07:01;;;;;;;;;;;;;;;21.65;53.78;100079.78;1790503;78;20156;-61
2021/05/19 12:09:31;;;;;;;;;;;;;;;21.67;53.76;100073.34;1791973;78;20559;-61
2021/05/19 12:12:05;;;;;;;;;;;;;;;21.67;53.74;100063.65;1793934;78;21099;-61
2021/05/19 12:14:31;;;;;;;;;;;;;;;21.69;53.73;100064.09;1796024;78;20502;-61
2021/05/19 12:16:57;;;;;;;;;;;;;;;21.70;53.72;100056.61;1802222;78;20247;-61
2021/05/19 12:19:26;;;;;;;;;;;;;;;21.70;53.72;100052.45;1793930;79;20161;-61
2021/05/19 12:22:09;;;;;;;;;;;;;;;21.71;53.70;100063.20;1795560;78;20284;-62
2021/05/19 12:24:35;;;;;;;;;;;;;;;21.73;53.65;100062.83;1794216;78;21078;-62
2021/05/19 12:27:02;;;;;;;;;;;;;;;21.74;53.62;100050.61;1794048;78;20266;-62
2021/05/19 12:29:44;;;;;;;;;;;;;;;21.75;53.62;100063.31;1795521;78;20511;-62
2021/05/19 12:32:28;;;;;;;;;;;;;;;21.77;53.59;100058.22;1797466;78;20371;-62
2021/05/19 12:35:07;;;;;;;;;;;;;;;21.77;53.56;100050.73;1794220;78;20274;-61
2021/05/19 12:37:47;;;;;;;;;;;;;;;21.80;53.54;100060.33;1796042;78;21101;-61
2021/05/19 12:40:16;;;;;;;;;;;;;;;21.81;53.50;100051.66;1799679;78;20269;-62
2021/05/19 12:42:46;;;;;;;;;;;;;;;21.83;53.47;100043.02;1794123;78;20226;-62
2021/05/19 12:45:13;;;;;;;;;;;;;;;21.86;53.43;100040.94;1798160;78;20350;-62
2021/05/19 12:47:39;;;;;;;;;;;;;;;21.86;53.41;100033.44;1798490;78;20258;-62